Airfield :
LOGIN :

Register | Disclaimer

   EN    FR    IT 

 










Legend :    VFR   Marginal VFR   IFR   Intensive IFR   Very Intensive IFR
Visi :
Ceiling :
>= 8 km
>= 3000ft
5 to 8 km
1000 to 3000 ft
1500m to 5 km
500 to 1000 ft
800 to 1500m
200 to 500 ft
< 800m
< 200 ft
Symbols :   Thunderstorms  Fog  Heavy snow  Heavy precipitations  Wind > 20 kt
SIGMETs :     Misc.  Thunderstorms  Icing  Turbulence  Mountain Waves  Volcanic Ashes






- Airport Elevation : 584 ft


LFPV - Villacoublay Vélizy

CURRENT METAR :
  • 021930Z AUTO 03005KT CAVOK 25/08 Q1012 NOSIG

EXPIRED METARs :
  • 021900Z AUTO 36004KT CAVOK 25/10 Q1013 NOSIG
  • 021830Z AUTO 35005KT CAVOK 26/10 Q1013 NOSIG
  • 021800Z AUTO 36004KT 330V030 CAVOK 27/09 Q1013 NOSIG
  • 021730Z AUTO 35004KT CAVOK 26/09 Q1013 NOSIG
  • 021700Z AUTO 34005KT 310V020 CAVOK 27/08 Q1013 NOSIG

TAF TAF LFPV
Valid from the 02 at 15:00 until the 03 at 15:00 UTC


021400Z 0215/0315 01006KT CAVOK
BECMG 0310/0312 FEW060CB
TEMPO 0312/0315 4000 SHRA SCT050CB



MET'MAP, your aeronautical weather chart ! - Copyright ORBIFLY December 2007 - Disclaimer

ORBIFLY MET'MAP TEAM :

Programming & Development : Alexandra Zaïnal
Concept & original design : Baudouin d'Aumeries
Assistance for programming : Marc-Olivier Méhu
Technical & hardware support : Manuel Goepfert

Contact : metmap@orbifly.com




SOURCES & CREDITS :

   NOAA